Time;durP1;ratioP1;P1;durP2;ratioP2;P2;SDS_P1;SDS_P2;PMS_P1;PMS_P2;Temp;Humidity;BMP_temperature;BMP_pressure;BME280_temperature;BME280_humidity;BME280_pressure;Samples;Min_cycle;Max_cycle;Signal;HPM_P1;HPM_P2
2021/06/23 00:00:33;;;;;;;4.68;1.10;;;16.90;99.90;;;;;;5117272;28;20034;-74
2021/06/23 00:02:58;;;;;;;6.65;0.60;;;16.80;99.90;;;;;;5089018;28;20039;-74
2021/06/23 00:05:26;;;;;;;4.95;0.60;;;16.80;99.90;;;;;;5114089;28;20131;-74
2021/06/23 00:07:52;;;;;;;5.22;0.80;;;16.70;99.90;;;;;;5118065;28;20054;-74
2021/06/23 00:10:18;;;;;;;7.15;0.57;;;16.80;99.90;;;;;;5105411;28;20019;-74
2021/06/23 00:12:44;;;;;;;3.58;0.52;;;16.80;99.90;;;;;;5118308;28;20050;-74
2021/06/23 00:15:13;;;;;;;1.38;0.50;;;16.70;99.90;;;;;;5115245;28;20042;-74
2021/06/23 00:17:39;;;;;;;3.40;0.70;;;16.80;99.90;;;;;;5111284;28;20114;-74
2021/06/23 00:20:06;;;;;;;3.85;0.70;;;16.80;99.90;;;;;;5099546;28;20024;-74
2021/06/23 00:22:33;;;;;;;2.75;0.73;;;16.80;99.90;;;;;;5112035;28;20024;-74
2021/06/23 00:24:59;;;;;;;2.38;0.45;;;16.90;99.90;;;;;;5106694;28;20477;-74
2021/06/23 00:27:25;;;;;;;3.20;0.60;;;16.80;99.90;;;;;;5114627;27;20035;-74
2021/06/23 00:29:51;;;;;;;1.77;0.50;;;16.70;99.90;;;;;;5114231;27;20023;-74
2021/06/23 00:32:19;;;;;;;5.45;0.70;;;16.70;99.90;;;;;;5119972;27;20039;-74
2021/06/23 00:34:45;;;;;;;2.40;0.50;;;16.60;99.90;;;;;;5120318;27;20039;-74
2021/06/23 00:37:11;;;;;;;3.60;0.60;;;16.60;99.90;;;;;;5120384;27;20046;-74
2021/06/23 00:39:37;;;;;;;5.90;1.10;;;16.60;99.90;;;;;;5109277;27;20481;-74
2021/06/23 00:42:04;;;;;;;4.45;0.80;;;16.60;99.90;;;;;;5098270;27;20046;-74
2021/06/23 00:44:30;;;;;;;5.10;0.50;;;16.60;99.90;;;;;;5108546;28;20042;-74
2021/06/23 00:46:56;;;;;;;1.98;0.88;;;16.60;99.90;;;;;;5109294;28;20043;-74
2021/06/23 00:49:22;;;;;;;3.95;0.60;;;16.60;99.90;;;;;;5123895;27;20115;-74
2021/06/23 00:51:48;;;;;;;5.57;0.98;;;16.60;99.90;;;;;;5117127;27;20071;-74
2021/06/23 00:54:15;;;;;;;6.32;0.80;;;16.60;99.90;;;;;;5109067;27;20066;-74
2021/06/23 00:56:42;;;;;;;2.60;0.80;;;16.70;99.90;;;;;;5116647;27;20031;-74
2021/06/23 00:59:10;;;;;;;1.67;0.70;;;16.70;99.90;;;;;;5091603;28;20030;-74
2021/06/23 01:01:39;;;;;;;4.70;0.73;;;16.70;99.90;;;;;;5092010;28;20038;-74
2021/06/23 01:04:05;;;;;;;3.88;0.65;;;16.80;99.90;;;;;;5125265;27;20054;-74
2021/06/23 01:06:32;;;;;;;4.10;0.50;;;16.70;99.90;;;;;;5112246;27;20023;-74
2021/06/23 01:08:59;;;;;;;5.97;0.73;;;16.70;99.90;;;;;;5117004;27;20019;-74
2021/06/23 01:11:27;;;;;;;1.75;0.70;;;16.70;99.90;;;;;;5117648;27;20677;-74
2021/06/23 01:13:59;;;;;;;3.55;0.52;;;16.70;99.90;;;;;;5120043;27;20054;-74
2021/06/23 01:16:28;;;;;;;3.42;0.60;;;16.60;99.90;;;;;;5114212;27;20020;-74
2021/06/23 01:18:54;;;;;;;3.70;0.60;;;16.60;99.90;;;;;;5116397;27;20094;-74
2021/06/23 01:21:20;;;;;;;4.15;0.63;;;16.60;99.90;;;;;;5115978;27;20903;-74
2021/06/23 01:23:46;;;;;;;3.15;0.43;;;16.60;99.90;;;;;;5108383;27;20078;-74
2021/06/23 01:26:11;;;;;;;2.05;0.40;;;16.50;99.90;;;;;;5100572;27;20035;-74
2021/06/23 01:28:37;;;;;;;2.97;0.40;;;16.50;99.90;;;;;;5119336;27;20090;-74
2021/06/23 01:31:03;;;;;;;2.35;0.40;;;16.50;99.90;;;;;;5111990;27;20028;-74
2021/06/23 01:33:29;;;;;;;5.40;0.70;;;16.50;99.90;;;;;;5113658;27;20050;-74
2021/06/23 01:35:56;;;;;;;6.15;0.70;;;16.50;99.90;;;;;;5116493;27;20144;-74
2021/06/23 01:38:22;;;;;;;2.90;0.60;;;16.50;99.90;;;;;;5118259;27;20055;-74
2021/06/23 01:40:49;;;;;;;3.13;0.45;;;16.50;99.90;;;;;;5124097;27;20023;-74
2021/06/23 01:43:15;;;;;;;3.03;0.50;;;16.50;99.90;;;;;;5115579;27;20024;-74
2021/06/23 01:45:45;;;;;;;2.90;0.60;;;16.40;99.90;;;;;;5096174;27;20023;-74
2021/06/23 01:48:13;;;;;;;2.15;0.50;;;16.40;99.90;;;;;;5088036;28;20039;-74
2021/06/23 01:50:39;;;;;;;3.30;0.50;;;16.30;99.90;;;;;;5115673;27;20027;-74
2021/06/23 01:53:04;;;;;;;1.67;0.40;;;16.30;99.90;;;;;;5116018;27;20050;-74
2021/06/23 01:55:31;;;;;;;2.15;0.40;;;16.30;99.90;;;;;;5115787;27;20106;-74
2021/06/23 01:58:06;;;;;;;3.78;0.60;;;16.40;99.90;;;;;;5116452;27;20061;-74
2021/06/23 02:00:52;;;;;;;2.67;0.50;;;16.40;99.90;;;;;;5118640;27;20023;-74
2021/06/23 02:03:26;;;;;;;2.05;0.60;;;16.40;99.90;;;;;;5094037;28;20036;-74
2021/06/23 02:06:05;;;;;;;5.80;0.70;;;16.40;99.90;;;;;;5103507;28;20019;-74
2021/06/23 02:08:50;;;;;;;1.52;0.40;;;16.40;99.90;;;;;;5086192;28;20039;-74
2021/06/23 02:11:28;;;;;;;5.32;0.60;;;16.40;99.90;;;;;;5113007;27;20102;-74
2021/06/23 02:14:33;;;;;;;1.58;0.57;;;16.40;99.90;;;;;;5118581;27;20035;-74
2021/06/23 02:17:02;;;;;;;4.88;0.70;;;16.40;99.90;;;;;;5115570;27;20050;-74
2021/06/23 02:19:32;;;;;;;5.05;0.68;;;16.30;99.90;;;;;;5106753;28;20019;-74
2021/06/23 02:22:00;;;;;;;6.47;0.70;;;16.40;99.90;;;;;;5114471;27;20039;-74
2021/06/23 02:24:28;;;;;;;5.13;0.57;;;16.40;99.90;;;;;;5119916;27;20024;-74
2021/06/23 02:26:55;;;;;;;3.70;0.70;;;16.40;99.90;;;;;;5109945;27;20035;-74
2021/06/23 02:29:21;;;;;;;3.42;0.63;;;16.40;99.90;;;;;;5107769;27;20051;-74
2021/06/23 02:31:51;;;;;;;3.15;0.70;;;16.30;99.90;;;;;;5095750;27;20486;-74
2021/06/23 02:34:17;;;;;;;7.38;2.25;;;16.30;99.90;;;;;;5105662;28;20461;-74
2021/06/23 02:36:43;;;;;;;6.78;2.13;;;16.40;99.90;;;;;;5114691;27;20035;-74
2021/06/23 02:39:10;;;;;;;7.15;2.13;;;16.40;99.90;;;;;;5111135;27;20035;-74
2021/06/23 02:41:36;;;;;;;6.78;2.20;;;16.30;99.90;;;;;;5112849;27;20067;-74
2021/06/23 02:44:03;;;;;;;5.13;1.60;;;16.30;99.90;;;;;;5116020;27;20019;-74
2021/06/23 02:46:29;;;;;;;6.13;1.10;;;16.30;99.90;;;;;;5113930;27;20136;-74
2021/06/23 02:48:57;;;;;;;3.83;1.05;;;16.20;99.90;;;;;;5105538;27;20489;-74
2021/06/23 02:51:26;;;;;;;5.85;0.90;;;16.30;99.90;;;;;;5118425;27;20031;-74
2021/06/23 02:53:55;;;;;;;2.72;0.60;;;16.20;99.90;;;;;;5116398;27;20127;-74
2021/06/23 02:56:22;;;;;;;5.50;0.70;;;16.20;99.90;;;;;;5107368;27;20039;-74
2021/06/23 02:58:49;;;;;;;4.68;0.73;;;16.10;99.90;;;;;;5113775;27;20072;-74
2021/06/23 03:01:15;;;;;;;3.15;0.60;;;16.10;99.90;;;;;;5118077;27;20024;-74
2021/06/23 03:03:43;;;;;;;2.10;0.80;;;16.10;99.90;;;;;;5112069;27;20023;-74
2021/06/23 03:06:09;;;;;;;2.63;0.68;;;16.20;99.90;;;;;;5110629;27;20413;-74
2021/06/23 03:08:36;;;;;;;5.72;0.80;;;16.10;99.90;;;;;;5120078;27;20385;-74
2021/06/23 03:11:02;;;;;;;3.85;0.82;;;16.20;99.90;;;;;;5111941;27;20050;-74
2021/06/23 03:13:28;;;;;;;2.40;0.60;;;16.10;99.90;;;;;;5095137;28;20035;-74
2021/06/23 03:15:54;;;;;;;2.85;0.63;;;16.10;99.90;;;;;;5111459;27;20039;-74
2021/06/23 03:18:19;;;;;;;4.05;0.55;;;16.10;99.90;;;;;;5114650;27;20028;-74
2021/06/23 03:20:45;;;;;;;3.55;0.88;;;16.10;99.90;;;;;;5120608;28;20076;-74
2021/06/23 03:23:11;;;;;;;3.97;0.60;;;16.10;99.90;;;;;;5095511;28;20036;-74
2021/06/23 03:25:37;;;;;;;6.10;0.60;;;16.10;99.90;;;;;;5106509;28;20781;-74
2021/06/23 03:28:04;;;;;;;6.60;0.60;;;16.10;99.90;;;;;;5108666;28;20492;-74
2021/06/23 03:30:30;;;;;;;5.20;0.70;;;16.10;99.90;;;;;;5095606;28;20059;-74
2021/06/23 03:32:57;;;;;;;4.22;0.90;;;16.20;99.90;;;;;;5113217;28;20063;-75
2021/06/23 03:35:24;;;;;;;1.63;0.57;;;16.10;99.90;;;;;;5114437;28;20031;-75
2021/06/23 03:37:51;;;;;;;3.17;0.70;;;16.10;99.90;;;;;;5113038;28;20465;-75
2021/06/23 03:40:18;;;;;;;5.93;0.80;;;16.00;99.90;;;;;;5114233;28;20465;-74
2021/06/23 03:42:44;;;;;;;4.13;0.95;;;16.00;99.90;;;;;;5094141;28;20388;-74
2021/06/23 03:45:11;;;;;;;7.57;1.08;;;16.10;99.90;;;;;;5084960;28;20036;-74
2021/06/23 03:47:38;;;;;;;5.28;1.27;;;16.00;99.90;;;;;;5105625;28;20042;-74
2021/06/23 03:50:05;;;;;;;3.88;1.10;;;16.10;99.90;;;;;;5116959;28;20062;-75
2021/06/23 03:52:30;;;;;;;5.95;1.30;;;16.20;99.90;;;;;;5117186;28;20039;-74
2021/06/23 03:54:56;;;;;;;5.63;1.27;;;16.20;99.90;;;;;;5109865;28;20031;-74
2021/06/23 03:57:22;;;;;;;4.95;0.98;;;16.20;99.90;;;;;;5090968;28;20032;-74
2021/06/23 03:59:47;;;;;;;7.07;1.20;;;16.30;99.90;;;;;;5101761;28;20027;-74
2021/06/23 04:02:13;;;;;;;5.97;1.23;;;16.20;99.90;;;;;;5110745;27;20626;-74
2021/06/23 04:04:38;;;;;;;5.40;1.20;;;16.10;99.90;;;;;;5114329;27;20038;-74
2021/06/23 04:07:04;;;;;;;3.78;1.20;;;16.10;99.90;;;;;;5109984;28;20074;-74
2021/06/23 04:09:30;;;;;;;5.28;1.30;;;16.10;99.90;;;;;;5117159;27;20115;-75
2021/06/23 04:11:55;;;;;;;4.68;1.25;;;16.10;99.90;;;;;;5109016;28;20427;-74
2021/06/23 04:14:21;;;;;;;6.00;1.63;;;16.20;99.90;;;;;;5112977;27;20746;-75
2021/06/23 04:16:47;;;;;;;5.72;1.25;;;16.20;99.90;;;;;;5118258;27;20478;-74
2021/06/23 04:19:12;;;;;;;7.88;1.88;;;16.20;99.90;;;;;;5119968;27;20042;-74
2021/06/23 04:21:38;;;;;;;4.43;0.75;;;16.20;99.90;;;;;;5117852;27;20023;-74
2021/06/23 04:24:04;;;;;;;8.43;0.98;;;16.20;99.90;;;;;;5111805;27;20028;-74
2021/06/23 04:26:30;;;;;;;5.47;0.93;;;16.10;99.90;;;;;;5123742;27;20036;-74
2021/06/23 04:28:56;;;;;;;4.82;1.02;;;16.00;99.90;;;;;;5117873;27;20067;-75
2021/06/23 04:31:21;;;;;;;8.95;1.00;;;16.10;99.90;;;;;;5117208;27;20604;-75
2021/06/23 04:33:47;;;;;;;3.08;0.77;;;16.00;99.90;;;;;;5118745;27;20035;-75
2021/06/23 04:36:12;;;;;;;9.18;0.93;;;16.10;99.90;;;;;;5126101;27;20027;-74
2021/06/23 04:38:38;;;;;;;4.70;0.70;;;16.00;99.90;;;;;;5112763;27;20396;-75
2021/06/23 04:41:04;;;;;;;6.68;1.00;;;16.10;99.90;;;;;;5118393;27;20575;-74
2021/06/23 04:43:30;;;;;;;4.70;0.80;;;16.10;99.90;;;;;;5114823;27;20035;-74
2021/06/23 04:45:56;;;;;;;4.30;0.77;;;16.20;99.90;;;;;;5117374;27;20030;-75
2021/06/23 04:48:21;;;;;;;2.65;1.00;;;16.30;99.90;;;;;;5115468;27;20050;-75
2021/06/23 04:50:47;;;;;;;5.70;0.82;;;16.40;99.90;;;;;;5108317;28;20852;-74
2021/06/23 04:53:12;;;;;;;5.25;0.73;;;16.20;99.90;;;;;;5124119;27;20035;-74
2021/06/23 04:55:38;;;;;;;4.45;0.90;;;16.30;99.90;;;;;;5097534;28;20473;-75
2021/06/23 04:58:04;;;;;;;7.72;0.70;;;16.40;99.90;;;;;;5108956;27;20115;-74
2021/06/23 05:00:30;;;;;;;7.00;2.17;;;16.70;99.90;;;;;;5110303;27;20354;-74
2021/06/23 05:02:55;;;;;;;6.93;1.40;;;16.80;99.90;;;;;;5119948;27;20101;-75
2021/06/23 05:05:21;;;;;;;4.07;1.25;;;16.80;99.90;;;;;;5124233;27;20030;-74
2021/06/23 05:07:47;;;;;;;7.05;1.20;;;16.90;99.90;;;;;;5108367;28;20032;-74
2021/06/23 05:10:13;;;;;;;4.45;1.10;;;16.90;99.90;;;;;;5104103;27;20350;-75
2021/06/23 05:12:39;;;;;;;7.18;0.95;;;17.10;99.90;;;;;;5111852;27;20712;-75
2021/06/23 05:15:05;;;;;;;4.00;0.80;;;17.40;99.90;;;;;;5118804;27;20027;-74
2021/06/23 05:17:31;;;;;;;4.13;0.75;;;17.30;99.90;;;;;;5107453;27;20031;-74
2021/06/23 05:19:57;;;;;;;4.38;0.88;;;17.60;99.90;;;;;;5097728;27;20027;-75
2021/06/23 05:22:23;;;;;;;7.22;4.13;;;17.60;99.90;;;;;;5109029;27;20035;-74
2021/06/23 05:24:49;;;;;;;5.80;3.83;;;17.60;99.90;;;;;;5104021;27;20062;-75
2021/06/23 05:27:15;;;;;;;4.95;1.00;;;17.50;99.90;;;;;;5106444;27;20044;-74
2021/06/23 05:29:41;;;;;;;5.95;0.85;;;17.50;99.90;;;;;;5107504;27;20540;-75
2021/06/23 05:32:08;;;;;;;4.20;0.70;;;17.40;99.90;;;;;;5102422;27;20036;-74
2021/06/23 05:34:33;;;;;;;2.25;0.50;;;17.40;99.90;;;;;;5096724;28;20060;-75
2021/06/23 05:36:59;;;;;;;2.25;0.45;;;17.30;99.90;;;;;;5100879;27;20036;-74
2021/06/23 05:39:25;;;;;;;7.60;0.88;;;17.10;99.90;;;;;;5108548;27;20027;-74
2021/06/23 05:41:52;;;;;;;3.70;0.70;;;16.90;99.90;;;;;;5117446;27;20156;-75
2021/06/23 05:44:17;;;;;;;2.95;0.70;;;17.00;99.90;;;;;;5102338;27;20038;-75
2021/06/23 05:46:43;;;;;;;4.50;1.70;;;17.00;99.90;;;;;;5116575;27;20107;-74
2021/06/23 05:49:09;;;;;;;8.93;3.65;;;17.10;99.90;;;;;;5117875;27;20062;-73
2021/06/23 05:51:35;;;;;;;7.70;3.95;;;17.20;99.90;;;;;;5098999;28;20030;-75
2021/06/23 05:54:00;;;;;;;6.72;2.05;;;17.30;99.90;;;;;;5097857;27;20126;-73
2021/06/23 05:56:26;;;;;;;4.57;1.23;;;17.50;99.90;;;;;;5119361;27;20058;-73
2021/06/23 05:58:52;;;;;;;4.65;0.70;;;17.60;99.90;;;;;;5119424;27;20373;-74
2021/06/23 06:01:18;;;;;;;6.20;0.80;;;17.60;99.90;;;;;;5107013;27;20900;-73
2021/06/23 06:03:43;;;;;;;8.43;0.85;;;18.00;99.90;;;;;;5113724;27;20028;-73
2021/06/23 06:06:10;;;;;;;9.07;0.90;;;18.30;99.90;;;;;;5106567;27;20507;-73
2021/06/23 06:08:36;;;;;;;1.60;0.70;;;18.60;99.90;;;;;;5105507;28;20035;-73
2021/06/23 06:11:01;;;;;;;5.85;1.00;;;18.70;99.90;;;;;;5102832;27;20085;-73
2021/06/23 06:13:28;;;;;;;3.90;1.02;;;18.80;99.90;;;;;;5102392;27;20100;-73
2021/06/23 06:15:54;;;;;;;4.18;0.70;;;19.00;99.90;;;;;;5100592;28;20193;-73
2021/06/23 06:18:23;;;;;;;6.05;0.60;;;19.00;99.90;;;;;;5103822;28;20032;-73
2021/06/23 06:20:49;;;;;;;2.88;0.60;;;18.80;99.90;;;;;;5104000;28;20032;-73
2021/06/23 06:23:15;;;;;;;3.53;0.73;;;18.60;99.90;;;;;;5084643;28;20027;-73
2021/06/23 06:25:40;;;;;;;2.08;0.60;;;18.80;99.90;;;;;;5104469;27;20043;-73
2021/06/23 06:28:06;;;;;;;3.92;0.70;;;18.70;99.90;;;;;;5098213;28;20062;-73
2021/06/23 06:30:32;;;;;;;2.05;0.70;;;18.50;99.90;;;;;;5101519;28;20039;-74
2021/06/23 06:32:57;;;;;;;2.15;0.50;;;18.50;99.90;;;;;;5101925;27;20046;-73
2021/06/23 06:35:23;;;;;;;3.75;0.60;;;18.40;99.90;;;;;;5103795;28;20035;-73
2021/06/23 06:37:49;;;;;;;3.75;0.57;;;18.50;99.90;;;;;;5097420;28;20514;-73
2021/06/23 06:40:15;;;;;;;3.40;0.60;;;18.70;99.90;;;;;;5084752;28;20035;-73
2021/06/23 06:42:41;;;;;;;4.30;0.60;;;18.80;99.90;;;;;;5097974;27;20101;-73
2021/06/23 06:45:07;;;;;;;2.35;0.60;;;18.90;99.90;;;;;;5106064;27;20043;-73
2021/06/23 06:47:33;;;;;;;6.60;0.80;;;18.90;99.90;;;;;;5099612;28;20034;-73
2021/06/23 06:49:59;;;;;;;4.32;0.70;;;18.90;99.90;;;;;;5107752;27;20388;-73
2021/06/23 06:52:25;;;;;;;5.40;0.60;;;18.70;99.90;;;;;;5104947;27;20031;-73
2021/06/23 06:54:51;;;;;;;3.15;0.75;;;18.60;99.90;;;;;;5104609;28;20040;-74
2021/06/23 06:57:16;;;;;;;2.75;0.52;;;18.70;99.90;;;;;;5105492;27;20030;-73
2021/06/23 06:59:42;;;;;;;3.88;0.70;;;18.70;99.90;;;;;;5097735;28;20047;-73
2021/06/23 07:02:08;;;;;;;6.28;0.60;;;18.70;99.90;;;;;;5103900;27;20039;-73
2021/06/23 07:04:34;;;;;;;5.03;0.60;;;18.50;99.90;;;;;;5103700;27;20027;-73
2021/06/23 07:07:00;;;;;;;4.43;0.60;;;18.70;99.90;;;;;;5107242;27;20372;-73
2021/06/23 07:09:25;;;;;;;6.78;0.90;;;18.80;99.90;;;;;;5097851;27;20065;-73
2021/06/23 07:11:51;;;;;;;2.30;0.60;;;18.90;99.90;;;;;;5099015;28;20028;-73
2021/06/23 07:14:20;;;;;;;2.33;0.50;;;19.00;99.90;;;;;;5102595;28;20078;-73
2021/06/23 07:16:46;;;;;;;5.78;1.00;;;19.00;99.90;;;;;;5104357;27;20072;-73
2021/06/23 07:19:12;;;;;;;2.72;0.98;;;19.10;99.90;;;;;;5101483;28;20057;-73
2021/06/23 07:21:37;;;;;;;8.20;1.38;;;19.20;99.90;;;;;;5086124;28;20078;-74
2021/06/23 07:24:04;;;;;;;9.15;1.15;;;19.10;99.90;;;;;;5080411;28;20122;-73
2021/06/23 07:26:29;;;;;;;6.03;1.20;;;19.30;99.90;;;;;;5098717;28;20023;-73
2021/06/23 07:28:56;;;;;;;3.25;1.20;;;19.30;99.90;;;;;;5099414;28;20064;-73
2021/06/23 07:36:44;;;;;;;8.18;1.23;;;19.10;99.90;;;;;;5100214;28;20023;-73
2021/06/23 07:39:12;;;;;;;4.22;1.08;;;19.30;99.90;;;;;;5107407;27;20511;-73
2021/06/23 07:41:43;;;;;;;5.13;1.00;;;19.20;99.90;;;;;;5091064;28;20027;-73
2021/06/23 07:44:11;;;;;;;7.82;1.30;;;19.40;99.90;;;;;;5107572;28;20032;-74
2021/06/23 07:46:40;;;;;;;4.82;1.15;;;19.30;99.90;;;;;;5107901;28;20027;-73
2021/06/23 07:49:12;;;;;;;9.45;1.55;;;19.50;99.90;;;;;;5088211;28;20499;-73
2021/06/23 07:51:44;;;;;;;5.18;1.13;;;19.50;99.90;;;;;;5107220;27;20027;-73
2021/06/23 08:10:14;;;;;;;4.18;1.13;;;19.60;99.90;;;;;;5103535;28;20162;-73
2021/06/23 08:12:54;;;;;;;4.10;1.25;;;19.50;99.90;;;;;;5101439;28;20023;-73
2021/06/23 08:15:21;;;;;;;6.15;1.52;;;19.60;99.90;;;;;;5108953;27;20039;-73
2021/06/23 08:17:47;;;;;;;4.32;0.80;;;19.60;99.90;;;;;;5110296;27;20037;-73
2021/06/23 08:20:13;;;;;;;4.35;1.40;;;19.40;99.90;;;;;;5104893;27;20036;-73
2021/06/23 08:22:39;;;;;;;5.85;1.27;;;19.80;99.90;;;;;;5104961;27;20020;-73
2021/06/23 08:25:06;;;;;;;5.22;1.08;;;20.00;99.90;;;;;;5106430;27;20039;-73
2021/06/23 08:27:32;;;;;;;7.13;1.23;;;19.50;99.90;;;;;;5107293;28;20058;-73
2021/06/23 08:29:58;;;;;;;6.07;1.40;;;19.70;99.90;;;;;;5104518;27;20035;-73
2021/06/23 08:32:24;;;;;;;4.18;1.23;;;20.30;99.90;;;;;;5104333;28;20027;-73
2021/06/23 08:34:49;;;;;;;4.50;1.30;;;20.60;99.90;;;;;;5107191;28;20039;-73
2021/06/23 08:37:15;;;;;;;7.75;1.67;;;21.10;99.90;;;;;;5099671;28;20032;-74
2021/06/23 08:39:41;;;;;;;11.70;3.20;;;21.10;99.90;;;;;;5103008;27;20094;-73
2021/06/23 08:42:08;;;;;;;4.90;1.20;;;21.40;99.90;;;;;;5106837;27;20130;-73
2021/06/23 08:44:34;;;;;;;5.18;0.82;;;22.00;99.90;;;;;;5104703;27;20028;-73
2021/06/23 08:47:01;;;;;;;3.35;1.10;;;22.60;99.90;;;;;;5097517;27;20034;-74
2021/06/23 08:49:28;;;;;;;4.03;0.90;;;23.10;99.90;;;;;;5100428;27;20441;-73
2021/06/23 08:51:55;;;;;;;4.63;1.20;;;22.60;99.90;;;;;;5105086;27;20024;-73
2021/06/23 08:54:21;;;;;;;6.18;1.20;;;23.50;99.90;;;;;;5109017;27;20417;-74
2021/06/23 08:56:47;;;;;;;6.43;1.42;;;23.30;99.90;;;;;;5103333;28;20032;-73
2021/06/23 08:59:13;;;;;;;3.33;0.50;;;23.30;99.90;;;;;;5108653;27;20114;-73
2021/06/23 09:01:42;;;;;;;4.38;1.33;;;23.10;99.90;;;;;;5088186;28;20540;-73
2021/06/23 09:04:17;;;;;;;5.57;0.70;;;23.00;99.90;;;;;;5108472;27;20043;-73
2021/06/23 09:06:46;;;;;;;4.25;1.17;;;23.30;99.90;;;;;;5101952;28;20084;-74
2021/06/23 09:09:35;;;;;;;5.63;0.80;;;23.20;99.90;;;;;;5104549;27;20523;-73
2021/06/23 09:12:06;;;;;;;4.45;0.90;;;23.40;99.90;;;;;;5092346;27;20113;-74
2021/06/23 09:14:38;;;;;;;8.23;1.30;;;22.50;99.90;;;;;;5104782;27;20036;-74
2021/06/23 09:17:16;;;;;;;;;;;22.90;99.90;;;;;;5108552;27;20020;-73
2021/06/23 09:19:46;;;;;;;4.47;0.68;;;22.60;99.90;;;;;;5101484;27;20423;-73
2021/06/23 09:22:32;;;;;;;2.67;0.52;;;22.40;99.90;;;;;;5089705;27;20019;-73
2021/06/23 09:24:59;;;;;;;5.60;0.77;;;22.20;99.90;;;;;;5096753;27;20488;-73
2021/06/23 09:27:29;;;;;;;2.10;0.70;;;22.50;99.90;;;;;;5105422;27;20063;-73
2021/06/23 09:30:43;;;;;;;3.95;0.60;;;23.10;99.90;;;;;;5103643;27;20109;-73
2021/06/23 09:33:24;;;;;;;3.28;0.68;;;23.10;99.90;;;;;;5082340;27;20046;-73
2021/06/23 09:36:00;;;;;;;2.58;0.60;;;22.70;99.90;;;;;;5102402;28;20058;-73
2021/06/23 09:38:45;;;;;;;4.65;0.80;;;23.10;99.90;;;;;;5101049;27;20455;-73
2021/06/23 09:41:27;;;;;;;3.13;0.60;;;22.90;99.90;;;;;;5081139;28;20043;-73
2021/06/23 09:43:58;;;;;;;1.83;0.60;;;22.40;99.90;;;;;;5102855;27;20031;-73
2021/06/23 09:46:30;;;;;;;2.50;0.60;;;22.80;99.90;;;;;;5104299;27;20968;-73
2021/06/23 09:49:23;;;;;;;4.10;0.55;;;22.70;99.90;;;;;;5103039;28;20123;-74
2021/06/23 09:51:53;;;;;;;4.15;0.55;;;22.80;99.90;;;;;;5105198;27;20036;-73
2021/06/23 09:54:22;;;;;;;4.90;0.63;;;23.00;99.90;;;;;;5104523;28;20036;-73
2021/06/23 09:56:48;;;;;;;5.53;0.90;;;22.80;99.90;;;;;;5099718;28;20043;-73
2021/06/23 09:59:36;;;;;;;3.15;0.90;;;22.00;99.90;;;;;;5106123;27;20023;-73
2021/06/23 10:02:04;;;;;;;3.53;0.70;;;22.50;99.90;;;;;;5097373;27;20480;-73
2021/06/23 10:04:34;;;;;;;3.88;0.85;;;22.60;99.90;;;;;;5101792;28;20076;-73
2021/06/23 10:07:02;;;;;;;4.57;0.80;;;22.90;99.90;;;;;;5103435;27;20490;-73
2021/06/23 10:09:31;;;;;;;3.15;0.68;;;23.20;99.90;;;;;;5105493;27;20028;-73
2021/06/23 10:12:05;;;;;;;3.78;0.60;;;23.40;99.90;;;;;;5105149;27;20043;-73
2021/06/23 10:14:33;;;;;;;8.63;1.05;;;23.40;99.90;;;;;;5104583;28;20024;-73
2021/06/23 10:17:01;;;;;;;2.80;0.85;;;23.40;99.90;;;;;;5109021;27;20027;-73
2021/06/23 10:19:28;;;;;;;4.55;0.77;;;23.10;99.90;;;;;;5100975;28;20055;-73
2021/06/23 10:21:55;;;;;;;3.35;0.82;;;23.20;99.90;;;;;;5101252;28;20027;-74
2021/06/23 10:24:22;;;;;;;2.20;0.77;;;23.70;99.90;;;;;;5098688;27;20063;-74
2021/06/23 10:26:51;;;;;;;2.03;0.60;;;23.60;99.90;;;;;;5107023;27;20031;-73
2021/06/23 10:29:25;;;;;;;3.55;0.73;;;23.50;99.90;;;;;;5105346;27;20511;-74
2021/06/23 10:31:51;;;;;;;3.17;0.88;;;23.70;99.90;;;;;;5099357;27;20937;-74
2021/06/23 10:34:18;;;;;;;3.58;1.02;;;24.00;99.90;;;;;;5099366;27;20027;-73
2021/06/23 10:36:44;;;;;;;3.65;0.60;;;24.00;99.90;;;;;;5106156;28;20566;-74
2021/06/23 10:39:11;;;;;;;5.45;0.70;;;24.00;99.90;;;;;;5106228;27;20650;-73
2021/06/23 10:41:42;;;;;;;2.00;0.63;;;24.00;99.90;;;;;;5101462;28;20566;-73
2021/06/23 10:44:15;;;;;;;4.00;0.97;;;24.00;99.90;;;;;;5099601;27;20106;-73
2021/06/23 10:46:41;;;;;;;2.90;0.75;;;23.80;99.90;;;;;;5097213;28;20024;-73
2021/06/23 10:49:06;;;;;;;3.05;0.70;;;24.00;99.90;;;;;;5104581;27;20100;-74
2021/06/23 10:51:32;;;;;;;2.83;0.82;;;24.30;99.90;;;;;;5102621;28;20036;-74
2021/06/23 10:53:57;;;;;;;4.40;0.70;;;24.10;99.90;;;;;;5104940;27;20382;-74
2021/06/23 10:56:45;;;;;;;2.03;0.63;;;24.10;99.90;;;;;;5102655;28;20030;-74
2021/06/23 10:59:36;;;;;;;5.07;0.70;;;24.00;99.90;;;;;;5094005;28;20036;-74
2021/06/23 11:02:10;;;;;;;3.80;0.88;;;24.40;99.90;;;;;;5105072;27;20027;-74
2021/06/23 11:04:57;;;;;;;6.45;0.80;;;24.80;99.90;;;;;;5081066;28;20422;-74
2021/06/23 11:07:46;;;;;;;3.67;0.60;;;24.80;99.90;;;;;;5098201;28;20028;-73
2021/06/23 11:10:17;;;;;;;2.10;0.70;;;25.10;99.90;;;;;;5100077;28;20876;-74
2021/06/23 11:12:43;;;;;;;3.83;0.60;;;24.60;99.90;;;;;;5097461;27;20158;-74
2021/06/23 11:15:18;;;;;;;3.25;0.80;;;25.20;99.90;;;;;;5096384;28;20036;-74
2021/06/23 11:17:45;;;;;;;1.73;0.60;;;25.10;99.90;;;;;;5100704;28;20512;-74
2021/06/23 11:20:20;;;;;;;3.88;0.95;;;24.80;99.90;;;;;;5102909;28;20032;-73
2021/06/23 11:22:46;;;;;;;3.40;0.80;;;25.20;99.90;;;;;;5095101;28;20393;-73
2021/06/23 11:25:34;;;;;;;3.75;0.70;;;25.10;99.90;;;;;;5093154;28;20036;-73
2021/06/23 11:28:08;;;;;;;5.97;1.13;;;24.70;99.90;;;;;;5103055;28;20047;-74
2021/06/23 11:30:52;;;;;;;2.28;0.55;;;25.00;99.90;;;;;;5092702;28;20039;-74
2021/06/23 11:33:27;;;;;;;3.88;0.70;;;25.20;99.90;;;;;;5105606;28;20534;-74
2021/06/23 11:36:04;;;;;;;2.60;0.40;;;25.00;99.90;;;;;;5102835;28;20040;-74
2021/06/23 11:38:30;;;;;;;3.92;0.77;;;25.20;99.90;;;;;;5082963;28;20055;-73
2021/06/23 11:40:58;;;;;;;2.13;0.65;;;25.10;99.90;;;;;;5100020;28;20036;-73
2021/06/23 11:43:25;;;;;;;4.30;0.80;;;24.90;99.90;;;;;;5104787;28;20043;-74
2021/06/23 11:45:51;;;;;;;2.15;0.70;;;24.90;99.90;;;;;;5098129;28;20036;-74
2021/06/23 11:48:18;;;;;;;3.22;0.50;;;24.80;99.90;;;;;;5100444;28;20034;-73
2021/06/23 11:50:45;;;;;;;3.08;0.70;;;24.90;99.90;;;;;;5102415;28;20122;-74
2021/06/23 11:53:16;;;;;;;3.50;0.70;;;24.80;99.90;;;;;;5104425;28;20051;-73
2021/06/23 11:55:44;;;;;;;5.05;0.75;;;24.80;99.90;;;;;;5098894;28;20032;-73
2021/06/23 11:58:11;;;;;;;2.15;0.70;;;24.80;99.90;;;;;;5104667;28;20408;-74
2021/06/23 12:00:38;;;;;;;2.08;0.73;;;24.80;99.90;;;;;;5091747;28;20028;-73
2021/06/23 12:03:06;;;;;;;4.72;0.95;;;24.70;99.90;;;;;;5097297;28;20030;-73
2021/06/23 12:05:33;;;;;;;2.67;0.70;;;24.60;99.90;;;;;;5103422;28;20123;-73
2021/06/23 12:07:59;;;;;;;3.55;0.60;;;24.40;99.90;;;;;;5101440;28;20031;-73
2021/06/23 12:10:27;;;;;;;2.95;1.13;;;24.70;99.90;;;;;;5084122;28;20043;-74
2021/06/23 12:12:53;;;;;;;1.73;0.60;;;24.80;99.90;;;;;;5100239;28;20098;-73
2021/06/23 12:15:20;;;;;;;4.93;0.70;;;24.90;99.90;;;;;;5104032;28;20106;-73
2021/06/23 12:17:57;;;;;;;3.70;0.77;;;25.10;99.90;;;;;;5099510;28;20024;-74
2021/06/23 12:20:24;;;;;;;3.60;0.80;;;25.00;99.90;;;;;;5098691;28;20038;-74
2021/06/23 12:22:57;;;;;;;4.07;0.60;;;24.90;99.90;;;;;;5106594;27;20028;-73
2021/06/23 12:25:28;;;;;;;2.55;0.50;;;25.20;99.90;;;;;;5106639;27;20028;-73
2021/06/23 12:27:54;;;;;;;3.03;0.50;;;25.00;99.90;;;;;;5105106;28;20831;-73
2021/06/23 12:30:22;;;;;;;2.85;0.70;;;25.10;99.90;;;;;;5108742;27;20036;-73
2021/06/23 12:32:47;;;;;;;3.17;0.50;;;25.10;99.90;;;;;;5104269;27;20054;-73
2021/06/23 12:35:13;;;;;;;2.00;0.70;;;25.00;99.90;;;;;;5107262;27;20028;-73
2021/06/23 12:37:39;;;;;;;2.92;0.60;;;25.00;99.90;;;;;;5099723;28;20034;-73
2021/06/23 12:40:06;;;;;;;4.28;0.57;;;25.10;99.90;;;;;;5108668;27;20051;-73
2021/06/23 12:42:32;;;;;;;1.15;0.47;;;24.90;99.90;;;;;;5103004;28;20032;-73
2021/06/23 12:45:04;;;;;;;2.38;0.50;;;25.00;99.90;;;;;;5101538;27;20028;-73
2021/06/23 12:47:29;;;;;;;3.90;0.70;;;25.20;99.90;;;;;;5106198;27;20525;-73
2021/06/23 12:49:55;;;;;;;2.47;0.50;;;25.00;99.90;;;;;;5107324;27;20043;-74
2021/06/23 12:52:21;;;;;;;4.00;0.70;;;24.90;99.90;;;;;;5109590;27;20597;-74
2021/06/23 12:54:47;;;;;;;1.75;0.40;;;25.20;99.90;;;;;;5108110;27;20404;-74
2021/06/23 12:57:13;;;;;;;3.83;0.60;;;24.90;99.90;;;;;;5106581;28;20039;-73
2021/06/23 12:59:39;;;;;;;1.75;0.50;;;25.00;99.90;;;;;;5107599;27;20089;-73
2021/06/23 13:02:05;;;;;;;3.58;0.50;;;25.30;99.90;;;;;;5102630;27;20773;-74
2021/06/23 13:04:30;;;;;;;2.40;0.60;;;25.50;99.90;;;;;;5103749;28;20040;-73
2021/06/23 13:06:56;;;;;;;4.45;0.40;;;25.40;99.90;;;;;;5103362;27;20473;-73
2021/06/23 13:09:22;;;;;;;2.30;0.57;;;25.60;99.90;;;;;;5104546;27;20043;-73
2021/06/23 13:11:48;;;;;;;4.40;1.00;;;25.80;99.90;;;;;;5105226;27;20047;-73
2021/06/23 13:14:13;;;;;;;2.55;0.55;;;26.00;99.90;;;;;;5103901;28;20032;-73